createdAt,value
2018-05-23T00:02:17.754Z,49.17
2018-05-23T00:04:45.924Z,48.73
2018-05-23T00:07:14.078Z,51.07
2018-05-23T00:09:42.276Z,48.87
2018-05-23T00:12:10.441Z,49.40
2018-05-23T00:14:38.711Z,52.57
2018-05-23T00:17:06.860Z,51.40
2018-05-23T00:19:35.071Z,51.77
2018-05-23T00:22:03.233Z,52.17
2018-05-23T00:24:31.465Z,52.67
2018-05-23T00:26:59.635Z,54.53
2018-05-23T00:29:27.843Z,54.30
2018-05-23T00:31:56.596Z,56.13
2018-05-23T00:34:24.812Z,56.67
2018-05-23T00:36:52.990Z,53.07
2018-05-23T00:39:24.014Z,54.93
2018-05-23T00:41:52.161Z,55.87
2018-05-23T00:44:20.371Z,54.47
2018-05-23T00:46:48.539Z,54.57
2018-05-23T00:49:16.718Z,55.50
2018-05-23T00:51:44.879Z,56.87
2018-05-23T00:54:13.072Z,57.00
2018-05-23T00:56:41.237Z,57.90
2018-05-23T00:59:10.012Z,58.93
2018-05-23T01:01:38.185Z,61.23
2018-05-23T01:04:06.449Z,59.23
2018-05-23T01:06:34.642Z,60.77
2018-05-23T01:09:02.786Z,58.37
2018-05-23T01:11:30.999Z,57.97
2018-05-23T01:13:59.154Z,60.83
2018-05-23T01:16:27.360Z,61.07
2018-05-23T01:18:55.507Z,62.93
2018-05-23T01:21:23.722Z,62.27
2018-05-23T01:23:51.885Z,61.73
2018-05-23T01:26:27.023Z,65.00
2018-05-23T01:28:55.191Z,63.03
2018-05-23T01:31:23.401Z,63.80
2018-05-23T01:33:51.570Z,63.23
2018-05-23T01:36:19.779Z,60.20
2018-05-23T01:38:47.969Z,63.87
2018-05-23T01:41:16.153Z,61.87
2018-05-23T01:43:44.355Z,62.83
2018-05-23T01:46:12.540Z,60.63
2018-05-23T01:48:52.523Z,59.97
2018-05-23T01:51:20.674Z,64.27
2018-05-23T01:53:48.864Z,64.13
2018-05-23T01:56:17.035Z,65.37
2018-05-23T01:58:45.231Z,59.50
2018-05-23T02:01:13.441Z,68.37
2018-05-23T02:03:41.625Z,66.40
2018-05-23T02:06:09.782Z,65.30
2018-05-23T02:08:37.982Z,67.77
2018-05-23T02:11:06.193Z,68.70
2018-05-23T02:13:34.381Z,71.80
2018-05-23T02:16:02.547Z,67.33
2018-05-23T02:18:30.736Z,66.20
2018-05-23T02:20:58.909Z,67.13
2018-05-23T02:23:27.105Z,65.83
2018-05-23T02:25:55.319Z,68.43
2018-05-23T02:28:23.516Z,63.93
2018-05-23T02:30:51.687Z,66.83
2018-05-23T02:33:19.909Z,65.00
2018-05-23T02:35:48.062Z,69.03
2018-05-23T02:38:16.265Z,61.47
2018-05-23T02:40:44.442Z,67.97
2018-05-23T02:43:12.599Z,69.73
2018-05-23T02:45:40.787Z,65.23
2018-05-23T02:48:08.969Z,65.50
2018-05-23T02:50:37.186Z,69.00
2018-05-23T02:53:05.360Z,65.90
2018-05-23T02:55:33.580Z,67.13
2018-05-23T02:58:01.755Z,66.30
2018-05-23T03:00:29.963Z,66.60
2018-05-23T03:02:59.223Z,70.80
2018-05-23T03:05:27.840Z,67.97
2018-05-23T03:07:56.093Z,63.87
2018-05-23T03:10:24.285Z,63.17
2018-05-23T03:12:52.491Z,64.10
2018-05-23T03:15:20.658Z,66.70
2018-05-23T03:17:48.810Z,63.70
2018-05-23T03:20:17.008Z,62.53
2018-05-23T03:22:45.173Z,65.63
2018-05-23T03:25:13.326Z,63.83
2018-05-23T03:27:41.522Z,63.23
2018-05-23T03:30:09.674Z,62.87
2018-05-23T03:32:37.876Z,64.30
2018-05-23T03:35:06.045Z,61.60
2018-05-23T03:37:34.234Z,62.13
2018-05-23T03:40:02.408Z,62.17
2018-05-23T03:42:30.659Z,62.70
2018-05-23T03:44:58.858Z,59.67
2018-05-23T03:47:27.063Z,58.73
2018-05-23T03:49:55.242Z,61.90
2018-05-23T03:52:23.426Z,63.23
2018-05-23T03:54:51.722Z,59.17
2018-05-23T03:57:19.905Z,62.77
2018-05-23T03:59:59.932Z,62.30
2018-05-23T04:02:40.014Z,62.73
2018-05-23T04:05:19.910Z,64.00
2018-05-23T04:07:48.113Z,64.43
2018-05-23T04:10:16.275Z,65.07
2018-05-23T04:12:44.441Z,62.20
2018-05-23T04:15:12.632Z,61.03
2018-05-23T04:17:40.795Z,61.77
2018-05-23T04:20:08.986Z,60.33
2018-05-23T04:22:37.172Z,62.37
2018-05-23T04:25:05.355Z,61.13
2018-05-23T04:27:33.538Z,57.20
2018-05-23T04:30:14.364Z,61.43
2018-05-23T04:32:43.215Z,60.50
2018-05-23T04:35:11.392Z,59.70
2018-05-23T04:37:39.569Z,59.50
2018-05-23T04:40:07.773Z,62.97
2018-05-23T04:42:35.933Z,58.17
2018-05-23T04:45:04.125Z,60.77
2018-05-23T04:47:32.325Z,59.07
2018-05-23T04:50:00.507Z,59.90
2018-05-23T04:52:31.227Z,58.50
2018-05-23T04:54:59.405Z,57.97
2018-05-23T04:57:27.609Z,63.77
2018-05-23T04:59:55.801Z,59.17
2018-05-23T05:02:24.021Z,58.33
2018-05-23T05:04:52.221Z,57.83
2018-05-23T05:07:20.375Z,58.03
2018-05-23T05:09:48.579Z,57.40
2018-05-23T05:12:16.800Z,56.20
2018-05-23T05:14:57.521Z,55.67
2018-05-23T05:17:28.764Z,54.57
2018-05-23T05:20:00.899Z,56.43
2018-05-23T05:22:29.060Z,55.97
2018-05-23T05:24:57.347Z,57.87
2018-05-23T05:27:25.497Z,54.27
2018-05-23T05:29:53.677Z,57.23
2018-05-23T05:32:21.884Z,54.67
2018-05-23T05:34:50.034Z,53.63
2018-05-23T05:37:19.410Z,57.70
2018-05-23T05:39:47.655Z,52.57
2018-05-23T05:42:15.853Z,49.53
2018-05-23T05:44:44.021Z,49.33
2018-05-23T05:47:14.683Z,47.80
2018-05-23T05:49:48.460Z,43.23
2018-05-23T05:52:22.477Z,41.37
2018-05-23T05:54:55.890Z,42.50
2018-05-23T05:57:49.297Z,40.63
2018-05-23T06:00:18.501Z,40.10
2018-05-23T06:02:46.741Z,41.43
2018-05-23T06:05:14.931Z,38.47
2018-05-23T06:07:43.097Z,38.27
2018-05-23T06:10:11.312Z,39.90
2018-05-23T06:12:39.479Z,35.67
2018-05-23T06:15:07.649Z,36.30
2018-05-23T06:17:35.864Z,39.00
2018-05-23T06:20:04.066Z,38.83
2018-05-23T06:22:32.232Z,38.00
2018-05-23T06:25:00.442Z,38.80
2018-05-23T06:27:28.659Z,39.20
2018-05-23T06:30:02.793Z,36.40
2018-05-23T06:32:39.345Z,30.47
2018-05-23T06:35:12.334Z,32.43
2018-05-23T06:37:43.572Z,34.23
2018-05-23T06:40:22.032Z,28.90
2018-05-23T06:43:07.017Z,31.77
2018-05-23T06:45:39.769Z,31.70
2018-05-23T06:48:21.406Z,27.97
2018-05-23T06:50:58.389Z,28.60
2018-05-23T06:53:40.278Z,29.13
2018-05-23T06:56:16.456Z,29.27
2018-05-23T06:58:52.953Z,25.97
2018-05-23T07:01:30.514Z,29.20
2018-05-23T07:04:01.830Z,25.90
2018-05-23T07:06:30.466Z,26.07
2018-05-23T07:09:00.006Z,25.67
2018-05-23T07:11:30.658Z,24.93
2018-05-23T07:14:04.035Z,24.27
2018-05-23T07:16:32.927Z,23.93
2018-05-23T07:19:10.026Z,21.63
2018-05-23T07:21:44.776Z,21.47
2018-05-23T07:24:15.943Z,22.33
2018-05-23T07:26:55.501Z,21.47
2018-05-23T07:29:37.431Z,19.40
2018-05-23T07:32:15.217Z,18.97
2018-05-23T07:34:56.350Z,20.50
2018-05-23T07:37:33.188Z,19.23
2018-05-23T07:40:08.657Z,17.80
2018-05-23T07:42:43.487Z,19.60
2018-05-23T07:45:17.733Z,24.70
2018-05-23T07:47:53.521Z,17.80
2018-05-23T07:50:21.712Z,17.17
2018-05-23T07:53:02.004Z,19.20
2018-05-23T07:55:41.628Z,17.60
2018-05-23T07:58:15.874Z,21.77
2018-05-23T08:01:01.240Z,17.23
2018-05-23T08:03:37.863Z,15.87
2018-05-23T08:06:09.595Z,16.17
2018-05-23T08:08:41.182Z,14.10
2018-05-23T08:11:17.309Z,10.93
2018-05-23T08:13:48.294Z,10.63
2018-05-23T08:16:33.228Z,11.20
2018-05-23T08:19:09.187Z,14.33
2018-05-23T08:21:43.549Z,9.97
2018-05-23T08:24:20.859Z,9.47
2018-05-23T08:27:04.679Z,10.33
2018-05-23T08:29:37.626Z,10.23
2018-05-23T08:32:21.883Z,11.40
2018-05-23T08:35:00.814Z,11.63
2018-05-23T08:37:34.850Z,9.50
2018-05-23T08:40:09.165Z,9.23
2018-05-23T08:42:41.392Z,11.03
2018-05-23T08:45:21.808Z,11.07
2018-05-23T08:48:01.131Z,12.93
2018-05-23T08:50:41.022Z,15.03
2018-05-23T08:53:27.376Z,11.13
2018-05-23T08:56:11.384Z,11.10
2018-05-23T08:58:47.058Z,15.17
2018-05-23T09:01:30.906Z,12.33
2018-05-23T09:04:10.529Z,13.57
2018-05-23T09:06:40.828Z,12.10
2018-05-23T09:09:14.578Z,15.17
2018-05-23T09:11:53.870Z,12.60
2018-05-23T09:14:26.707Z,14.73
2018-05-23T09:17:03.371Z,12.77
2018-05-23T09:19:35.436Z,11.93
2018-05-23T09:22:11.248Z,11.93
2018-05-23T09:24:44.766Z,13.50
2018-05-23T09:27:22.576Z,12.63
2018-05-23T09:29:57.522Z,12.50
2018-05-23T09:32:38.537Z,11.13
2018-05-23T09:35:11.077Z,10.00
2018-05-23T09:37:42.132Z,12.27
2018-05-23T09:40:17.673Z,9.40
2018-05-23T09:42:59.854Z,7.33
2018-05-23T09:45:38.532Z,9.57
2018-05-23T09:48:10.408Z,8.37
2018-05-23T09:50:44.760Z,11.97
2018-05-23T09:53:24.951Z,10.37
2018-05-23T09:56:01.656Z,8.83
2018-05-23T09:58:44.064Z,8.37
2018-05-23T10:01:18.790Z,6.70
2018-05-23T10:03:57.010Z,10.07
2018-05-23T10:06:33.984Z,9.57
2018-05-23T10:09:20.338Z,8.47
2018-05-23T10:11:56.867Z,8.30
2018-05-23T10:14:37.483Z,7.57
2018-05-23T10:17:20.115Z,12.33
2018-05-23T10:19:57.308Z,6.97
2018-05-23T10:22:33.715Z,8.10
2018-05-23T10:25:14.049Z,10.83
2018-05-23T10:27:47.364Z,8.23
2018-05-23T10:30:21.666Z,8.07
2018-05-23T10:32:51.417Z,12.93
2018-05-23T10:35:19.587Z,8.17
2018-05-23T10:37:47.741Z,10.63
2018-05-23T10:40:15.939Z,9.10
2018-05-23T10:42:44.114Z,10.53
2018-05-23T10:45:12.287Z,5.27
2018-05-23T10:47:40.462Z,5.90
2018-05-23T10:50:08.638Z,6.80
2018-05-23T10:52:36.828Z,5.30
2018-05-23T10:55:05.056Z,7.40
2018-05-23T10:57:33.213Z,6.07
2018-05-23T11:00:01.431Z,3.17
2018-05-23T11:02:29.595Z,3.90
2018-05-23T11:04:57.758Z,5.50
2018-05-23T11:07:25.924Z,4.30
2018-05-23T11:09:54.122Z,7.37
2018-05-23T11:12:22.277Z,4.33
2018-05-23T11:14:50.577Z,4.70
2018-05-23T11:17:18.722Z,5.63
2018-05-23T11:19:46.931Z,2.87
2018-05-23T11:22:15.122Z,5.03
2018-05-23T11:24:43.267Z,3.37
2018-05-23T11:27:11.429Z,3.03
2018-05-23T11:29:39.651Z,4.53
2018-05-23T11:32:07.770Z,4.30
2018-05-23T11:34:35.945Z,7.60
2018-05-23T11:37:04.130Z,3.60
2018-05-23T11:39:33.634Z,3.43
2018-05-23T11:42:01.811Z,4.00
2018-05-23T11:44:30.086Z,3.63
2018-05-23T11:46:58.248Z,3.43
2018-05-23T11:49:26.437Z,3.87
2018-05-23T11:51:54.581Z,5.87
2018-05-23T11:54:22.764Z,9.20
2018-05-23T11:56:50.918Z,4.37
2018-05-23T11:59:19.104Z,6.67
2018-05-23T12:01:47.341Z,7.13
2018-05-23T12:04:15.484Z,6.27
2018-05-23T12:06:43.651Z,4.87
2018-05-23T12:09:11.918Z,5.17
2018-05-23T12:11:40.093Z,5.97
2018-05-23T12:14:08.337Z,5.43
2018-05-23T12:16:36.491Z,4.70
2018-05-23T12:19:04.657Z,6.60
2018-05-23T12:21:32.857Z,6.73
2018-05-23T12:24:01.921Z,4.20
2018-05-23T12:26:30.095Z,5.67
2018-05-23T12:28:58.278Z,7.27
2018-05-23T12:31:26.451Z,6.00
2018-05-23T12:33:54.619Z,8.73
2018-05-23T12:36:22.809Z,5.17
2018-05-23T12:38:50.989Z,5.97
2018-05-23T12:41:19.141Z,6.37
2018-05-23T12:43:47.327Z,6.13
2018-05-23T12:46:15.534Z,8.80
2018-05-23T12:48:43.671Z,9.60
2018-05-23T12:51:11.834Z,6.43
2018-05-23T12:53:40.020Z,7.40
2018-05-23T12:56:08.195Z,10.17
2018-05-23T12:58:36.372Z,9.20
2018-05-23T13:01:04.521Z,9.80
2018-05-23T13:03:32.684Z,9.73
2018-05-23T13:06:00.850Z,9.77
2018-05-23T13:08:29.009Z,11.53
2018-05-23T13:10:57.219Z,11.20
2018-05-23T13:13:25.379Z,8.90
2018-05-23T13:15:53.654Z,7.90
2018-05-23T13:18:21.800Z,7.47
2018-05-23T13:20:49.983Z,7.63
2018-05-23T13:23:18.178Z,5.10
2018-05-23T13:25:46.359Z,6.07
2018-05-23T13:28:14.508Z,5.60
2018-05-23T13:30:42.684Z,7.20
2018-05-23T13:33:10.838Z,5.77
2018-05-23T13:35:39.051Z,6.40
2018-05-23T13:38:07.207Z,5.30
2018-05-23T13:40:35.410Z,6.17
2018-05-23T13:43:03.564Z,5.63
2018-05-23T13:45:31.745Z,5.43
2018-05-23T13:48:00.730Z,7.57
2018-05-23T13:50:28.899Z,8.40
2018-05-23T13:52:57.059Z,5.17
2018-05-23T13:55:26.176Z,5.62
2018-05-23T13:57:54.362Z,7.30
2018-05-23T14:00:22.532Z,7.78
2018-05-23T14:02:50.682Z,5.43
2018-05-23T14:05:18.833Z,5.95
2018-05-23T14:07:47.044Z,5.78
2018-05-23T14:10:15.201Z,6.07
2018-05-23T14:12:43.418Z,7.93
2018-05-23T14:15:11.592Z,6.32
2018-05-23T14:17:39.755Z,9.90
2018-05-23T14:20:07.988Z,6.80
2018-05-23T14:22:36.143Z,4.65
2018-05-23T14:25:04.426Z,7.03
2018-05-23T14:27:32.591Z,7.80
2018-05-23T14:30:00.765Z,5.28
2018-05-23T14:32:28.929Z,10.10
2018-05-23T14:34:57.084Z,5.57
2018-05-23T14:37:25.300Z,6.25
2018-05-23T14:39:54.381Z,11.38
2018-05-23T14:42:22.557Z,6.85
2018-05-23T14:44:50.712Z,7.90
2018-05-23T14:47:18.907Z,6.12
2018-05-23T14:49:47.090Z,6.43
2018-05-23T14:52:15.263Z,6.95
2018-05-23T14:54:43.464Z,7.40
2018-05-23T14:57:11.637Z,9.43
2018-05-23T14:59:39.891Z,9.82
2018-05-23T15:02:08.092Z,8.98
2018-05-23T15:04:36.283Z,14.52
2018-05-23T15:07:04.438Z,8.43
2018-05-23T15:09:32.621Z,8.90
2018-05-23T15:12:00.787Z,12.95
2018-05-23T15:14:29.082Z,9.93
2018-05-23T15:16:57.223Z,9.90
2018-05-23T15:19:25.461Z,9.10
2018-05-23T15:21:53.639Z,11.10
2018-05-23T15:24:21.818Z,7.15
2018-05-23T15:26:49.986Z,7.55
2018-05-23T15:29:18.175Z,9.20
2018-05-23T15:31:46.356Z,7.60
2018-05-23T15:34:14.507Z,10.32
2018-05-23T15:36:42.698Z,10.75
2018-05-23T15:39:10.853Z,9.13
2018-05-23T15:41:39.127Z,8.35
2018-05-23T15:44:07.259Z,9.30
2018-05-23T15:46:35.468Z,10.07
2018-05-23T15:49:03.667Z,8.00
2018-05-23T15:51:31.865Z,6.75
2018-05-23T15:54:00.020Z,12.30
2018-05-23T15:56:28.948Z,7.57
2018-05-23T15:58:57.091Z,9.77
2018-05-23T16:01:25.264Z,9.60
2018-05-23T16:03:53.455Z,6.60
2018-05-23T16:06:21.622Z,6.30
2018-05-23T16:08:49.758Z,9.00
2018-05-23T16:11:17.940Z,8.55
2018-05-23T16:13:46.133Z,10.30
2018-05-23T16:16:15.369Z,7.55
2018-05-23T16:18:43.529Z,8.40
2018-05-23T16:21:11.712Z,9.82
2018-05-23T16:23:39.891Z,10.88
2018-05-23T16:26:08.045Z,9.80
2018-05-23T16:28:36.248Z,8.02
2018-05-23T16:31:04.390Z,10.77
2018-05-23T16:33:32.576Z,8.23
2018-05-23T16:36:00.805Z,8.43
2018-05-23T16:38:28.982Z,11.13
2018-05-23T16:40:57.164Z,11.43
2018-05-23T16:43:25.332Z,11.53
2018-05-23T16:45:53.529Z,9.70
2018-05-23T16:48:21.733Z,9.57
2018-05-23T16:50:49.893Z,8.60
2018-05-23T16:53:18.080Z,9.53
2018-05-23T16:55:46.238Z,10.67
2018-05-23T16:58:14.394Z,8.77
2018-05-23T17:00:42.563Z,8.10
2018-05-23T17:03:10.745Z,9.43
2018-05-23T17:05:38.889Z,8.43
2018-05-23T17:08:07.072Z,8.90
2018-05-23T17:10:35.323Z,7.80
2018-05-23T17:13:03.667Z,7.43
2018-05-23T17:15:31.872Z,9.93
2018-05-23T17:18:00.034Z,6.67
2018-05-23T17:20:28.183Z,9.50
2018-05-23T17:22:56.391Z,11.90
2018-05-23T17:25:24.562Z,7.87
2018-05-23T17:27:52.715Z,6.70
2018-05-23T17:30:20.900Z,10.07
2018-05-23T17:32:49.112Z,6.90
2018-05-23T17:35:17.341Z,11.27
2018-05-23T17:37:45.486Z,6.57
2018-05-23T17:40:13.799Z,9.00
2018-05-23T17:42:41.945Z,5.87
2018-05-23T17:45:10.105Z,8.57
2018-05-23T17:47:38.329Z,6.87
2018-05-23T17:50:06.517Z,6.77
2018-05-23T17:52:34.699Z,6.17
2018-05-23T17:55:02.875Z,9.90
2018-05-23T17:57:31.033Z,8.20
2018-05-23T17:59:59.204Z,7.23
2018-05-23T18:02:27.361Z,7.43
2018-05-23T18:04:55.537Z,6.87
2018-05-23T18:07:23.734Z,8.50
2018-05-23T18:09:51.906Z,8.37
2018-05-23T18:12:20.066Z,6.53
2018-05-23T18:14:48.211Z,5.77
2018-05-23T18:17:16.416Z,7.47
2018-05-23T18:19:44.590Z,7.03
2018-05-23T18:22:12.769Z,6.87
2018-05-23T18:24:40.940Z,6.77
2018-05-23T18:27:09.175Z,6.10
2018-05-23T18:29:37.366Z,8.10
2018-05-23T18:32:05.560Z,8.60
2018-05-23T18:34:33.789Z,8.23
2018-05-23T18:37:01.990Z,9.90
2018-05-23T18:39:30.155Z,7.47
2018-05-23T18:41:58.303Z,11.93
2018-05-23T18:44:26.483Z,6.83
2018-05-23T18:46:54.631Z,10.90
2018-05-23T18:49:22.819Z,6.13
2018-05-23T18:51:51.022Z,10.70
2018-05-23T18:54:19.283Z,10.63
2018-05-23T18:56:47.418Z,6.10
2018-05-23T18:59:15.618Z,8.70
2018-05-23T19:01:43.795Z,6.13
2018-05-23T19:04:11.981Z,9.83
2018-05-23T19:06:40.123Z,7.07
2018-05-23T19:09:08.309Z,5.60
2018-05-23T19:11:36.483Z,9.43
2018-05-23T19:14:04.685Z,10.97
2018-05-23T19:16:32.871Z,9.33
2018-05-23T19:19:01.681Z,6.83
2018-05-23T19:21:30.156Z,6.50
2018-05-23T19:23:59.918Z,12.30
2018-05-23T19:26:31.520Z,9.30
2018-05-23T19:28:59.917Z,8.60
2018-05-23T19:31:28.404Z,11.43
2018-05-23T19:33:56.917Z,13.33
2018-05-23T19:36:25.427Z,11.37
2018-05-23T19:38:54.555Z,14.57
2018-05-23T19:41:23.130Z,12.73
2018-05-23T19:43:51.514Z,17.00
2018-05-23T19:46:20.087Z,18.90
2018-05-23T19:48:48.542Z,20.10
2018-05-23T19:51:17.025Z,22.90
2018-05-23T19:53:45.283Z,15.83
2018-05-23T19:56:13.478Z,14.07
2018-05-23T19:58:41.685Z,10.53
2018-05-23T20:01:09.887Z,11.10
2018-05-23T20:03:38.091Z,9.67
2018-05-23T20:06:06.273Z,9.70
2018-05-23T20:08:34.452Z,10.47
2018-05-23T20:11:02.633Z,14.23
2018-05-23T20:13:30.812Z,9.37
2018-05-23T20:15:59.001Z,8.77
2018-05-23T20:18:27.199Z,7.03
2018-05-23T20:20:55.452Z,7.27
2018-05-23T20:23:23.623Z,7.57
2018-05-23T20:25:51.810Z,6.90
2018-05-23T20:28:20.012Z,6.83
2018-05-23T20:30:48.152Z,9.60
2018-05-23T20:33:16.343Z,7.83
2018-05-23T20:35:44.485Z,8.00
2018-05-23T20:38:13.223Z,6.53
2018-05-23T20:40:41.413Z,7.77
2018-05-23T20:43:09.579Z,8.10
2018-05-23T20:45:37.733Z,8.83
2018-05-23T20:48:05.932Z,4.90
2018-05-23T20:50:34.098Z,5.77
2018-05-23T20:53:02.273Z,6.53
2018-05-23T20:55:30.445Z,8.63
2018-05-23T20:57:58.604Z,7.23
2018-05-23T21:00:26.807Z,6.37
2018-05-23T21:02:54.968Z,5.27
2018-05-23T21:05:23.186Z,8.13
2018-05-23T21:07:51.366Z,6.30
2018-05-23T21:10:19.525Z,6.07
2018-05-23T21:12:47.714Z,5.73
2018-05-23T21:15:15.860Z,6.40
2018-05-23T21:17:44.052Z,6.97
2018-05-23T21:20:12.223Z,6.77
2018-05-23T21:22:40.390Z,7.07
2018-05-23T21:25:08.581Z,6.13
2018-05-23T21:27:36.738Z,6.70
2018-05-23T21:30:04.910Z,8.20
2018-05-23T21:32:33.087Z,4.67
2018-05-23T21:35:01.246Z,4.50
2018-05-23T21:37:29.451Z,6.10
2018-05-23T21:39:57.614Z,7.50
2018-05-23T21:42:25.810Z,7.07
2018-05-23T21:44:54.006Z,5.40
2018-05-23T21:47:22.165Z,6.70
2018-05-23T21:49:50.335Z,4.70
2018-05-23T21:52:18.549Z,5.53
2018-05-23T21:54:46.724Z,10.50
2018-05-23T21:57:14.875Z,4.83
2018-05-23T21:59:43.628Z,5.80
2018-05-23T22:02:11.788Z,6.40
2018-05-23T22:04:39.988Z,7.17
2018-05-23T22:07:08.148Z,5.43
2018-05-23T22:09:36.315Z,6.97
2018-05-23T22:12:04.528Z,6.63
2018-05-23T22:14:32.688Z,4.30
2018-05-23T22:17:00.838Z,4.13
2018-05-23T22:19:29.013Z,7.47
2018-05-23T22:21:57.169Z,3.63
2018-05-23T22:24:25.366Z,5.67
2018-05-23T22:26:53.545Z,4.07
2018-05-23T22:29:21.705Z,5.40
2018-05-23T22:31:49.895Z,3.67
2018-05-23T22:34:18.032Z,6.00
2018-05-23T22:36:46.209Z,5.10
2018-05-23T22:39:14.398Z,5.27
2018-05-23T22:41:54.964Z,3.87
2018-05-23T22:44:28.117Z,4.23
2018-05-23T22:46:56.290Z,3.37
2018-05-23T22:49:24.502Z,4.83
2018-05-23T22:51:52.666Z,3.37
2018-05-23T22:54:20.838Z,3.77
2018-05-23T22:56:49.007Z,3.77
2018-05-23T22:59:17.196Z,7.60
2018-05-23T23:01:45.358Z,4.30
2018-05-23T23:04:13.540Z,6.30
2018-05-23T23:06:43.078Z,3.07
2018-05-23T23:09:12.116Z,4.90
2018-05-23T23:11:40.617Z,7.83
2018-05-23T23:14:08.802Z,5.63
2018-05-23T23:16:37.001Z,7.17
2018-05-23T23:19:05.157Z,8.13
2018-05-23T23:21:33.369Z,7.23
2018-05-23T23:24:02.369Z,5.43
2018-05-23T23:26:30.555Z,5.20
2018-05-23T23:28:58.732Z,5.40
2018-05-23T23:31:26.906Z,4.43
2018-05-23T23:33:55.887Z,3.53
2018-05-23T23:36:24.065Z,4.63
2018-05-23T23:38:52.275Z,3.53
2018-05-23T23:41:20.457Z,4.20
2018-05-23T23:43:48.669Z,5.23
2018-05-23T23:46:16.846Z,5.37
2018-05-23T23:48:45.072Z,7.57
2018-05-23T23:51:13.265Z,4.73
2018-05-23T23:53:41.456Z,6.00
2018-05-23T23:56:09.623Z,5.27
2018-05-23T23:58:37.798Z,4.57
